sensor_id;sensor_type;location;lat;lon;timestamp;P1;durP1;ratioP1;P2;durP2;ratioP2
10497;SDS011;5296;51.060;13.750;2022-12-07T00:01:08;7.60;;;6.53;;
10497;SDS011;5296;51.060;13.750;2022-12-07T00:06:10;6.73;;;6.03;;
10497;SDS011;5296;51.060;13.750;2022-12-07T00:11:15;7.03;;;6.33;;
10497;SDS011;5296;51.060;13.750;2022-12-07T00:16:18;7.77;;;6.90;;
10497;SDS011;5296;51.060;13.750;2022-12-07T00:21:22;7.40;;;6.60;;
10497;SDS011;5296;51.060;13.750;2022-12-07T00:26:27;7.10;;;6.40;;
10497;SDS011;5296;51.060;13.750;2022-12-07T00:31:34;6.97;;;6.27;;
10497;SDS011;5296;51.060;13.750;2022-12-07T00:36:40;8.77;;;6.40;;
10497;SDS011;5296;51.060;13.750;2022-12-07T00:41:42;7.03;;;6.33;;
10497;SDS011;5296;51.060;13.750;2022-12-07T00:46:43;8.30;;;7.00;;
10497;SDS011;5296;51.060;13.750;2022-12-07T00:51:47;7.93;;;7.03;;
10497;SDS011;5296;51.060;13.750;2022-12-07T00:56:50;7.97;;;6.70;;
10497;SDS011;5296;51.060;13.750;2022-12-07T01:01:51;7.63;;;6.80;;
10497;SDS011;5296;51.060;13.750;2022-12-07T01:06:53;8.40;;;6.90;;
10497;SDS011;5296;51.060;13.750;2022-12-07T01:11:54;8.13;;;7.23;;
10497;SDS011;5296;51.060;13.750;2022-12-07T01:16:56;8.57;;;7.37;;
10497;SDS011;5296;51.060;13.750;2022-12-07T01:21:58;7.70;;;6.83;;
10497;SDS011;5296;51.060;13.750;2022-12-07T01:26:59;9.10;;;7.60;;
10497;SDS011;5296;51.060;13.750;2022-12-07T01:32:01;9.23;;;7.60;;
10497;SDS011;5296;51.060;13.750;2022-12-07T01:37:02;9.63;;;7.97;;
10497;SDS011;5296;51.060;13.750;2022-12-07T01:42:04;9.90;;;7.97;;
10497;SDS011;5296;51.060;13.750;2022-12-07T01:47:06;9.80;;;8.03;;
10497;SDS011;5296;51.060;13.750;2022-12-07T01:57:19;9.90;;;7.43;;
10497;SDS011;5296;51.060;13.750;2022-12-07T02:02:26;8.50;;;7.53;;
10497;SDS011;5296;51.060;13.750;2022-12-07T02:07:30;8.33;;;7.17;;
10497;SDS011;5296;51.060;13.750;2022-12-07T02:12:32;9.37;;;7.17;;
10497;SDS011;5296;51.060;13.750;2022-12-07T02:17:40;9.20;;;6.67;;
10497;SDS011;5296;51.060;13.750;2022-12-07T02:28:07;6.77;;;6.07;;
10497;SDS011;5296;51.060;13.750;2022-12-07T02:33:16;6.27;;;5.60;;
10497;SDS011;5296;51.060;13.750;2022-12-07T02:43:47;6.20;;;5.20;;
10497;SDS011;5296;51.060;13.750;2022-12-07T02:48:53;6.83;;;6.13;;
10497;SDS011;5296;51.060;13.750;2022-12-07T02:53:55;6.23;;;5.17;;
10497;SDS011;5296;51.060;13.750;2022-12-07T02:59:11;6.13;;;5.33;;
10497;SDS011;5296;51.060;13.750;2022-12-07T03:14:49;6.00;;;5.40;;
10497;SDS011;5296;51.060;13.750;2022-12-07T03:19:56;6.40;;;5.80;;
10497;SDS011;5296;51.060;13.750;2022-12-07T03:25:03;6.07;;;5.40;;
10497;SDS011;5296;51.060;13.750;2022-12-07T03:30:07;6.30;;;5.70;;
10497;SDS011;5296;51.060;13.750;2022-12-07T03:35:18;6.90;;;6.20;;
10497;SDS011;5296;51.060;13.750;2022-12-07T03:40:26;7.70;;;6.90;;
10497;SDS011;5296;51.060;13.750;2022-12-07T03:56:10;9.10;;;7.90;;
10497;SDS011;5296;51.060;13.750;2022-12-07T04:01:12;9.23;;;8.07;;
10497;SDS011;5296;51.060;13.750;2022-12-07T04:06:13;8.43;;;7.63;;
10497;SDS011;5296;51.060;13.750;2022-12-07T04:11:15;8.60;;;7.63;;
10497;SDS011;5296;51.060;13.750;2022-12-07T04:16:16;9.50;;;7.87;;
10497;SDS011;5296;51.060;13.750;2022-12-07T04:21:18;8.83;;;7.87;;
10497;SDS011;5296;51.060;13.750;2022-12-07T04:26:19;9.17;;;7.93;;
10497;SDS011;5296;51.060;13.750;2022-12-07T04:31:21;8.97;;;7.57;;
10497;SDS011;5296;51.060;13.750;2022-12-07T04:36:23;8.43;;;7.20;;
10497;SDS011;5296;51.060;13.750;2022-12-07T04:41:25;8.37;;;7.40;;
10497;SDS011;5296;51.060;13.750;2022-12-07T04:46:30;7.90;;;7.10;;
10497;SDS011;5296;51.060;13.750;2022-12-07T04:51:32;8.73;;;7.00;;
10497;SDS011;5296;51.060;13.750;2022-12-07T04:56:34;7.87;;;6.97;;
10497;SDS011;5296;51.060;13.750;2022-12-07T05:01:38;8.87;;;6.93;;
10497;SDS011;5296;51.060;13.750;2022-12-07T05:06:40;8.93;;;7.17;;
10497;SDS011;5296;51.060;13.750;2022-12-07T05:11:41;8.33;;;6.80;;
10497;SDS011;5296;51.060;13.750;2022-12-07T05:16:44;7.53;;;6.80;;
10497;SDS011;5296;51.060;13.750;2022-12-07T05:21:47;9.37;;;7.20;;
10497;SDS011;5296;51.060;13.750;2022-12-07T05:26:49;8.03;;;6.87;;
10497;SDS011;5296;51.060;13.750;2022-12-07T05:31:50;8.77;;;6.90;;
10497;SDS011;5296;51.060;13.750;2022-12-07T05:36:52;7.53;;;6.77;;
10497;SDS011;5296;51.060;13.750;2022-12-07T05:41:54;8.10;;;6.67;;
10497;SDS011;5296;51.060;13.750;2022-12-07T05:47:13;6.77;;;5.63;;
10497;SDS011;5296;51.060;13.750;2022-12-07T05:52:16;7.57;;;6.00;;
10497;SDS011;5296;51.060;13.750;2022-12-07T05:57:17;6.87;;;5.00;;
10497;SDS011;5296;51.060;13.750;2022-12-07T06:02:19;6.20;;;5.60;;
10497;SDS011;5296;51.060;13.750;2022-12-07T06:07:21;5.57;;;5.07;;
10497;SDS011;5296;51.060;13.750;2022-12-07T06:12:22;4.70;;;4.10;;
10497;SDS011;5296;51.060;13.750;2022-12-07T06:17:44;5.90;;;4.27;;
10497;SDS011;5296;51.060;13.750;2022-12-07T06:22:46;6.07;;;3.97;;
10497;SDS011;5296;51.060;13.750;2022-12-07T06:27:47;5.33;;;4.00;;
10497;SDS011;5296;51.060;13.750;2022-12-07T06:32:49;4.43;;;3.60;;
10497;SDS011;5296;51.060;13.750;2022-12-07T06:37:50;3.80;;;3.50;;
10497;SDS011;5296;51.060;13.750;2022-12-07T06:42:52;4.40;;;3.73;;
10497;SDS011;5296;51.060;13.750;2022-12-07T06:47:54;4.00;;;3.60;;
10497;SDS011;5296;51.060;13.750;2022-12-07T06:52:55;5.20;;;3.70;;
10497;SDS011;5296;51.060;13.750;2022-12-07T06:57:58;3.97;;;3.63;;
10497;SDS011;5296;51.060;13.750;2022-12-07T07:02:59;4.30;;;3.60;;
10497;SDS011;5296;51.060;13.750;2022-12-07T07:08:01;4.10;;;3.70;;
10497;SDS011;5296;51.060;13.750;2022-12-07T07:13:23;5.40;;;3.80;;
10497;SDS011;5296;51.060;13.750;2022-12-07T07:18:25;5.07;;;3.67;;
10497;SDS011;5296;51.060;13.750;2022-12-07T07:23:27;3.90;;;3.60;;
10497;SDS011;5296;51.060;13.750;2022-12-07T07:28:28;5.10;;;4.47;;
10497;SDS011;5296;51.060;13.750;2022-12-07T07:33:30;4.67;;;3.50;;
10497;SDS011;5296;51.060;13.750;2022-12-07T07:38:32;3.90;;;3.60;;
10497;SDS011;5296;51.060;13.750;2022-12-07T07:43:33;4.23;;;3.80;;
10497;SDS011;5296;51.060;13.750;2022-12-07T07:48:35;3.80;;;3.40;;
10497;SDS011;5296;51.060;13.750;2022-12-07T07:53:36;4.10;;;3.70;;
10497;SDS011;5296;51.060;13.750;2022-12-07T07:58:38;3.90;;;3.57;;
10497;SDS011;5296;51.060;13.750;2022-12-07T08:03:40;5.33;;;4.23;;
10497;SDS011;5296;51.060;13.750;2022-12-07T08:08:42;5.07;;;4.27;;
10497;SDS011;5296;51.060;13.750;2022-12-07T08:13:46;5.00;;;4.20;;
10497;SDS011;5296;51.060;13.750;2022-12-07T08:18:48;6.10;;;5.50;;
10497;SDS011;5296;51.060;13.750;2022-12-07T08:23:50;5.30;;;4.80;;
10497;SDS011;5296;51.060;13.750;2022-12-07T08:28:52;5.00;;;4.50;;
10497;SDS011;5296;51.060;13.750;2022-12-07T08:33:54;7.43;;;5.20;;
10497;SDS011;5296;51.060;13.750;2022-12-07T08:38:56;5.70;;;5.10;;
10497;SDS011;5296;51.060;13.750;2022-12-07T08:44:17;6.10;;;5.50;;
10497;SDS011;5296;51.060;13.750;2022-12-07T08:49:20;7.37;;;4.97;;
10497;SDS011;5296;51.060;13.750;2022-12-07T08:54:27;5.70;;;5.20;;
10497;SDS011;5296;51.060;13.750;2022-12-07T08:59:29;5.50;;;5.00;;
10497;SDS011;5296;51.060;13.750;2022-12-07T09:04:31;5.53;;;5.00;;
10497;SDS011;5296;51.060;13.750;2022-12-07T09:09:33;5.60;;;4.97;;
10497;SDS011;5296;51.060;13.750;2022-12-07T09:14:34;6.10;;;5.27;;
10497;SDS011;5296;51.060;13.750;2022-12-07T09:19:36;6.23;;;5.47;;
10497;SDS011;5296;51.060;13.750;2022-12-07T09:24:38;7.60;;;5.20;;
10497;SDS011;5296;51.060;13.750;2022-12-07T09:29:39;6.23;;;4.80;;
10497;SDS011;5296;51.060;13.750;2022-12-07T09:34:41;5.60;;;4.70;;
10497;SDS011;5296;51.060;13.750;2022-12-07T09:39:43;4.97;;;4.40;;
10497;SDS011;5296;51.060;13.750;2022-12-07T09:44:50;6.30;;;5.03;;
10497;SDS011;5296;51.060;13.750;2022-12-07T09:49:52;7.40;;;4.53;;
10497;SDS011;5296;51.060;13.750;2022-12-07T09:54:56;7.60;;;4.83;;
10497;SDS011;5296;51.060;13.750;2022-12-07T10:00:00;5.97;;;4.47;;
10497;SDS011;5296;51.060;13.750;2022-12-07T10:05:06;5.37;;;4.07;;
10497;SDS011;5296;51.060;13.750;2022-12-07T10:10:17;9.53;;;4.57;;
10497;SDS011;5296;51.060;13.750;2022-12-07T10:15:21;4.77;;;4.27;;
10497;SDS011;5296;51.060;13.750;2022-12-07T10:20:24;6.68;;;4.28;;
10497;SDS011;5296;51.060;13.750;2022-12-07T10:25:27;7.77;;;4.13;;
10497;SDS011;5296;51.060;13.750;2022-12-07T10:30:45;4.87;;;4.07;;
10497;SDS011;5296;51.060;13.750;2022-12-07T10:36:50;5.50;;;4.47;;
10497;SDS011;5296;51.060;13.750;2022-12-07T10:41:58;4.87;;;4.37;;
10497;SDS011;5296;51.060;13.750;2022-12-07T10:47:09;5.47;;;3.93;;
10497;SDS011;5296;51.060;13.750;2022-12-07T11:02:50;5.27;;;3.83;;
10497;SDS011;5296;51.060;13.750;2022-12-07T11:13:53;4.90;;;4.03;;
10497;SDS011;5296;51.060;13.750;2022-12-07T11:35:08;5.53;;;4.43;;
10497;SDS011;5296;51.060;13.750;2022-12-07T11:40:35;5.40;;;4.40;;
10497;SDS011;5296;51.060;13.750;2022-12-07T11:45:40;4.60;;;3.43;;
10497;SDS011;5296;51.060;13.750;2022-12-07T11:50:47;6.53;;;3.83;;
10497;SDS011;5296;51.060;13.750;2022-12-07T11:55:56;6.27;;;4.40;;
10497;SDS011;5296;51.060;13.750;2022-12-07T12:01:13;6.85;;;4.53;;
10497;SDS011;5296;51.060;13.750;2022-12-07T12:06:19;8.23;;;4.57;;
10497;SDS011;5296;51.060;13.750;2022-12-07T12:22:15;7.85;;;5.35;;
10497;SDS011;5296;51.060;13.750;2022-12-07T12:27:26;8.77;;;5.53;;
10497;SDS011;5296;51.060;13.750;2022-12-07T12:37:42;6.10;;;4.53;;
10497;SDS011;5296;51.060;13.750;2022-12-07T12:42:45;7.43;;;4.85;;
10497;SDS011;5296;51.060;13.750;2022-12-07T12:47:52;5.32;;;3.75;;
10497;SDS011;5296;51.060;13.750;2022-12-07T12:53:04;4.13;;;2.03;;
10497;SDS011;5296;51.060;13.750;2022-12-07T12:58:39;3.03;;;1.98;;
10497;SDS011;5296;51.060;13.750;2022-12-07T13:03:51;2.00;;;1.63;;
10497;SDS011;5296;51.060;13.750;2022-12-07T13:08:54;3.57;;;1.87;;
10497;SDS011;5296;51.060;13.750;2022-12-07T13:24:42;3.13;;;1.27;;
10497;SDS011;5296;51.060;13.750;2022-12-07T13:29:43;2.43;;;1.40;;
10497;SDS011;5296;51.060;13.750;2022-12-07T13:34:45;2.37;;;1.47;;
10497;SDS011;5296;51.060;13.750;2022-12-07T13:44:50;2.80;;;2.03;;
10497;SDS011;5296;51.060;13.750;2022-12-07T13:49:54;2.27;;;1.80;;
10497;SDS011;5296;51.060;13.750;2022-12-07T14:00:00;3.13;;;2.20;;
10497;SDS011;5296;51.060;13.750;2022-12-07T14:05:09;20.47;;;3.90;;
10497;SDS011;5296;51.060;13.750;2022-12-07T14:10:27;10.93;;;3.20;;
10497;SDS011;5296;51.060;13.750;2022-12-07T14:15:33;5.90;;;2.70;;
10497;SDS011;5296;51.060;13.750;2022-12-07T14:20:36;5.90;;;2.93;;
10497;SDS011;5296;51.060;13.750;2022-12-07T14:25:49;4.90;;;2.83;;
10497;SDS011;5296;51.060;13.750;2022-12-07T14:30:52;8.13;;;3.20;;
10497;SDS011;5296;51.060;13.750;2022-12-07T14:35:54;3.77;;;3.30;;
10497;SDS011;5296;51.060;13.750;2022-12-07T14:40:59;6.40;;;3.73;;
10497;SDS011;5296;51.060;13.750;2022-12-07T14:46:21;6.27;;;3.50;;
10497;SDS011;5296;51.060;13.750;2022-12-07T14:51:22;4.67;;;3.20;;
10497;SDS011;5296;51.060;13.750;2022-12-07T14:56:44;7.70;;;3.88;;
10497;SDS011;5296;51.060;13.750;2022-12-07T15:01:47;4.30;;;3.63;;
10497;SDS011;5296;51.060;13.750;2022-12-07T15:06:58;6.73;;;3.90;;
10497;SDS011;5296;51.060;13.750;2022-12-07T15:12:01;6.23;;;3.30;;
10497;SDS011;5296;51.060;13.750;2022-12-07T15:17:04;6.13;;;2.57;;
10497;SDS011;5296;51.060;13.750;2022-12-07T15:22:11;3.23;;;2.70;;
10497;SDS011;5296;51.060;13.750;2022-12-07T15:27:13;3.73;;;2.40;;
10497;SDS011;5296;51.060;13.750;2022-12-07T15:32:15;7.50;;;3.10;;
10497;SDS011;5296;51.060;13.750;2022-12-07T15:37:16;5.73;;;3.07;;
10497;SDS011;5296;51.060;13.750;2022-12-07T15:42:18;3.90;;;2.40;;
10497;SDS011;5296;51.060;13.750;2022-12-07T15:47:20;2.53;;;2.33;;
10497;SDS011;5296;51.060;13.750;2022-12-07T15:52:21;3.57;;;2.57;;
10497;SDS011;5296;51.060;13.750;2022-12-07T15:57:23;6.50;;;3.30;;
10497;SDS011;5296;51.060;13.750;2022-12-07T16:02:26;3.67;;;2.80;;
10497;SDS011;5296;51.060;13.750;2022-12-07T16:07:27;5.40;;;2.60;;
10497;SDS011;5296;51.060;13.750;2022-12-07T16:12:29;3.80;;;2.70;;
10497;SDS011;5296;51.060;13.750;2022-12-07T16:17:31;4.10;;;2.53;;
10497;SDS011;5296;51.060;13.750;2022-12-07T16:22:32;4.90;;;2.90;;
10497;SDS011;5296;51.060;13.750;2022-12-07T16:27:34;5.63;;;3.17;;
10497;SDS011;5296;51.060;13.750;2022-12-07T16:32:36;3.33;;;2.97;;
10497;SDS011;5296;51.060;13.750;2022-12-07T16:37:38;5.83;;;3.60;;
10497;SDS011;5296;51.060;13.750;2022-12-07T16:42:40;3.60;;;3.10;;
10497;SDS011;5296;51.060;13.750;2022-12-07T16:47:41;4.93;;;3.33;;
10497;SDS011;5296;51.060;13.750;2022-12-07T16:52:43;4.13;;;3.03;;
10497;SDS011;5296;51.060;13.750;2022-12-07T16:57:44;4.33;;;3.20;;
10497;SDS011;5296;51.060;13.750;2022-12-07T17:02:46;4.77;;;2.80;;
10497;SDS011;5296;51.060;13.750;2022-12-07T17:07:48;5.55;;;2.53;;
10497;SDS011;5296;51.060;13.750;2022-12-07T17:12:49;5.43;;;2.63;;
10497;SDS011;5296;51.060;13.750;2022-12-07T17:17:58;3.10;;;2.47;;
10497;SDS011;5296;51.060;13.750;2022-12-07T17:22:59;2.33;;;1.77;;
10497;SDS011;5296;51.060;13.750;2022-12-07T17:28:01;4.47;;;2.03;;
10497;SDS011;5296;51.060;13.750;2022-12-07T17:33:03;3.83;;;2.30;;
10497;SDS011;5296;51.060;13.750;2022-12-07T17:38:04;2.40;;;2.10;;
10497;SDS011;5296;51.060;13.750;2022-12-07T17:43:06;3.50;;;2.30;;
10497;SDS011;5296;51.060;13.750;2022-12-07T17:48:07;3.50;;;2.20;;
10497;SDS011;5296;51.060;13.750;2022-12-07T17:53:10;4.07;;;2.43;;
10497;SDS011;5296;51.060;13.750;2022-12-07T17:58:12;4.50;;;2.60;;
10497;SDS011;5296;51.060;13.750;2022-12-07T18:03:14;3.03;;;2.70;;
10497;SDS011;5296;51.060;13.750;2022-12-07T18:08:15;4.30;;;2.70;;
10497;SDS011;5296;51.060;13.750;2022-12-07T18:13:17;6.40;;;2.60;;
10497;SDS011;5296;51.060;13.750;2022-12-07T18:18:37;2.93;;;2.63;;
10497;SDS011;5296;51.060;13.750;2022-12-07T18:23:40;5.43;;;2.50;;
10497;SDS011;5296;51.060;13.750;2022-12-07T18:28:42;3.67;;;2.20;;
10497;SDS011;5296;51.060;13.750;2022-12-07T18:33:45;2.23;;;2.00;;
10497;SDS011;5296;51.060;13.750;2022-12-07T18:38:47;2.43;;;1.90;;
10497;SDS011;5296;51.060;13.750;2022-12-07T18:43:49;3.23;;;2.10;;
10497;SDS011;5296;51.060;13.750;2022-12-07T18:48:50;4.73;;;2.37;;
10497;SDS011;5296;51.060;13.750;2022-12-07T18:53:52;3.70;;;1.97;;
10497;SDS011;5296;51.060;13.750;2022-12-07T18:58:57;3.27;;;2.30;;
10497;SDS011;5296;51.060;13.750;2022-12-07T19:04:18;5.07;;;2.13;;
10497;SDS011;5296;51.060;13.750;2022-12-07T19:09:20;3.17;;;1.80;;
10497;SDS011;5296;51.060;13.750;2022-12-07T19:14:23;3.60;;;2.07;;
10497;SDS011;5296;51.060;13.750;2022-12-07T19:19:30;3.03;;;1.97;;
10497;SDS011;5296;51.060;13.750;2022-12-07T19:24:36;3.90;;;1.80;;
10497;SDS011;5296;51.060;13.750;2022-12-07T19:29:38;5.03;;;2.30;;
10497;SDS011;5296;51.060;13.750;2022-12-07T19:34:40;3.57;;;2.17;;
10497;SDS011;5296;51.060;13.750;2022-12-07T19:39:43;3.40;;;2.30;;
10497;SDS011;5296;51.060;13.750;2022-12-07T19:44:46;3.23;;;2.70;;
10497;SDS011;5296;51.060;13.750;2022-12-07T19:49:48;3.53;;;2.87;;
10497;SDS011;5296;51.060;13.750;2022-12-07T19:54:49;4.23;;;2.83;;
10497;SDS011;5296;51.060;13.750;2022-12-07T19:59:51;3.53;;;2.90;;
10497;SDS011;5296;51.060;13.750;2022-12-07T20:04:53;2.97;;;2.60;;
10497;SDS011;5296;51.060;13.750;2022-12-07T20:09:54;3.83;;;2.63;;
10497;SDS011;5296;51.060;13.750;2022-12-07T20:14:56;5.87;;;3.30;;
10497;SDS011;5296;51.060;13.750;2022-12-07T20:19:59;4.40;;;2.83;;
10497;SDS011;5296;51.060;13.750;2022-12-07T20:25:01;5.67;;;3.43;;
10497;SDS011;5296;51.060;13.750;2022-12-07T20:30:03;4.00;;;2.87;;
10497;SDS011;5296;51.060;13.750;2022-12-07T20:35:05;4.70;;;2.83;;
10497;SDS011;5296;51.060;13.750;2022-12-07T20:40:07;4.33;;;2.67;;
10497;SDS011;5296;51.060;13.750;2022-12-07T20:45:09;3.13;;;2.33;;
10497;SDS011;5296;51.060;13.750;2022-12-07T20:50:12;3.87;;;2.60;;
10497;SDS011;5296;51.060;13.750;2022-12-07T20:55:13;2.70;;;2.30;;
10497;SDS011;5296;51.060;13.750;2022-12-07T21:00:15;4.27;;;2.80;;
10497;SDS011;5296;51.060;13.750;2022-12-07T21:05:17;6.27;;;2.40;;
10497;SDS011;5296;51.060;13.750;2022-12-07T21:10:19;2.70;;;2.47;;
10497;SDS011;5296;51.060;13.750;2022-12-07T21:15:21;4.40;;;2.60;;
10497;SDS011;5296;51.060;13.750;2022-12-07T21:20:23;3.33;;;2.63;;
10497;SDS011;5296;51.060;13.750;2022-12-07T21:25:25;3.50;;;2.80;;
10497;SDS011;5296;51.060;13.750;2022-12-07T21:30:26;3.77;;;2.70;;
10497;SDS011;5296;51.060;13.750;2022-12-07T21:35:37;6.87;;;3.27;;
10497;SDS011;5296;51.060;13.750;2022-12-07T21:40:39;3.13;;;2.67;;
10497;SDS011;5296;51.060;13.750;2022-12-07T21:45:40;4.63;;;2.77;;
10497;SDS011;5296;51.060;13.750;2022-12-07T21:50:42;3.90;;;2.93;;
10497;SDS011;5296;51.060;13.750;2022-12-07T21:55:44;5.20;;;3.10;;
10497;SDS011;5296;51.060;13.750;2022-12-07T22:00:46;4.27;;;2.90;;
10497;SDS011;5296;51.060;13.750;2022-12-07T22:05:47;6.03;;;2.80;;
10497;SDS011;5296;51.060;13.750;2022-12-07T22:10:49;5.23;;;2.97;;
10497;SDS011;5296;51.060;13.750;2022-12-07T22:15:50;5.27;;;3.23;;
10497;SDS011;5296;51.060;13.750;2022-12-07T22:20:52;2.83;;;2.60;;
10497;SDS011;5296;51.060;13.750;2022-12-07T22:25:57;4.57;;;2.90;;
10497;SDS011;5296;51.060;13.750;2022-12-07T22:31:02;5.50;;;2.80;;
10497;SDS011;5296;51.060;13.750;2022-12-07T22:36:08;5.47;;;3.00;;
10497;SDS011;5296;51.060;13.750;2022-12-07T22:41:11;3.73;;;2.57;;
10497;SDS011;5296;51.060;13.750;2022-12-07T22:46:13;6.83;;;3.20;;
10497;SDS011;5296;51.060;13.750;2022-12-07T22:56:19;3.83;;;2.90;;
10497;SDS011;5296;51.060;13.750;2022-12-07T23:01:22;4.60;;;2.47;;
10497;SDS011;5296;51.060;13.750;2022-12-07T23:06:25;5.13;;;3.30;;
10497;SDS011;5296;51.060;13.750;2022-12-07T23:11:29;4.23;;;2.77;;
10497;SDS011;5296;51.060;13.750;2022-12-07T23:16:50;6.30;;;3.07;;
10497;SDS011;5296;51.060;13.750;2022-12-07T23:21:52;3.00;;;2.57;;
10497;SDS011;5296;51.060;13.750;2022-12-07T23:26:54;3.80;;;3.27;;
10497;SDS011;5296;51.060;13.750;2022-12-07T23:31:55;3.92;;;2.90;;
10497;SDS011;5296;51.060;13.750;2022-12-07T23:36:57;4.63;;;3.00;;
10497;SDS011;5296;51.060;13.750;2022-12-07T23:41:59;5.37;;;2.90;;
10497;SDS011;5296;51.060;13.750;2022-12-07T23:47:01;4.53;;;3.00;;
10497;SDS011;5296;51.060;13.750;2022-12-07T23:52:03;5.03;;;3.23;;
10497;SDS011;5296;51.060;13.750;2022-12-07T23:57:05;4.23;;;3.07;;
